createdAt,value
2023-05-03T00:02:26.038Z,18.06
2023-05-03T00:04:54.748Z,18.03
2023-05-03T00:07:23.181Z,18.07
2023-05-03T00:09:50.501Z,18.09
2023-05-03T00:12:17.878Z,18.10
2023-05-03T00:14:46.167Z,18.14
2023-05-03T00:17:13.531Z,18.14
2023-05-03T00:19:40.844Z,18.03
2023-05-03T00:22:09.092Z,17.97
2023-05-03T00:24:36.294Z,17.17
2023-05-03T00:27:04.635Z,17.56
2023-05-03T00:29:31.738Z,18.02
2023-05-03T00:32:00.350Z,18.04
2023-05-03T00:34:27.887Z,18.25
2023-05-03T00:36:54.948Z,18.23
2023-05-03T00:39:22.264Z,18.28
2023-05-03T00:41:49.502Z,18.19
2023-05-03T00:44:16.618Z,18.25
2023-05-03T00:46:44.337Z,18.26
2023-05-03T00:49:11.666Z,18.25
2023-05-03T00:51:39.694Z,18.18
2023-05-03T00:54:06.992Z,18.17
2023-05-03T00:56:47.820Z,18.18
2023-05-03T00:59:15.407Z,18.08
2023-05-03T01:01:43.306Z,17.97
2023-05-03T01:04:10.581Z,17.94
2023-05-03T01:07:04.277Z,17.90
2023-05-03T01:09:37.832Z,17.78
2023-05-03T01:12:25.364Z,17.71
2023-05-03T01:14:58.630Z,17.68
2023-05-03T01:17:28.822Z,17.66
2023-05-03T01:19:58.232Z,17.65
2023-05-03T01:22:38.674Z,17.62
2023-05-03T01:25:09.615Z,17.60
2023-05-03T01:27:37.149Z,17.59
2023-05-03T01:30:06.145Z,17.53
2023-05-03T01:32:46.146Z,17.40
2023-05-03T01:35:20.440Z,17.36
2023-05-03T01:37:48.393Z,17.31
2023-05-03T01:40:17.100Z,17.26
2023-05-03T01:42:44.477Z,17.21
2023-05-03T01:45:11.816Z,17.15
2023-05-03T01:47:39.200Z,17.10
2023-05-03T01:50:06.511Z,17.06
2023-05-03T01:52:33.687Z,16.97
2023-05-03T01:55:01.047Z,16.93
2023-05-03T01:57:28.228Z,16.94
2023-05-03T01:59:55.679Z,16.90
2023-05-03T02:02:22.823Z,16.87
2023-05-03T02:04:50.237Z,16.87
2023-05-03T02:07:17.675Z,16.87
2023-05-03T02:09:46.186Z,16.82
2023-05-03T02:12:13.364Z,16.78
2023-05-03T02:14:41.284Z,16.74
2023-05-03T02:17:10.574Z,16.74
2023-05-03T02:19:38.278Z,16.65
2023-05-03T02:22:07.471Z,16.60
2023-05-03T02:24:36.429Z,16.58
2023-05-03T02:27:07.254Z,16.60
2023-05-03T02:29:34.457Z,16.62
2023-05-03T02:32:02.057Z,16.60
2023-05-03T02:34:29.885Z,16.61
2023-05-03T02:36:56.919Z,16.58
2023-05-03T02:39:23.935Z,16.56
2023-05-03T02:41:51.143Z,16.55
2023-05-03T02:44:18.346Z,16.82
2023-05-03T02:49:30.302Z,16.18
2023-05-03T02:51:57.782Z,17.36
2023-05-03T02:54:24.779Z,17.44
2023-05-03T02:56:51.828Z,17.43
2023-05-03T02:59:18.910Z,17.44
2023-05-03T03:01:46.617Z,17.45
2023-05-03T03:04:15.304Z,17.50
2023-05-03T03:06:42.496Z,17.39
2023-05-03T03:09:09.521Z,17.06
2023-05-03T03:11:36.505Z,17.04
2023-05-03T03:14:03.500Z,17.04
2023-05-03T03:16:31.144Z,17.04
2023-05-03T03:18:58.164Z,17.06
2023-05-03T03:21:28.593Z,17.08
2023-05-03T03:23:56.064Z,17.05
2023-05-03T03:26:23.182Z,17.10
2023-05-03T03:28:50.817Z,17.17
2023-05-03T03:31:18.542Z,17.25
2023-05-03T03:33:45.845Z,17.30
2023-05-03T03:36:14.760Z,17.34
2023-05-03T03:38:42.243Z,17.38
2023-05-03T03:41:09.501Z,17.42
2023-05-03T03:43:37.092Z,17.42
2023-05-03T03:46:05.128Z,17.46
2023-05-03T03:48:33.464Z,17.52
2023-05-03T03:51:00.386Z,17.55
2023-05-03T03:53:31.786Z,17.60
2023-05-03T03:55:59.889Z,17.64
2023-05-03T03:58:26.941Z,17.73
2023-05-03T04:00:55.066Z,17.89
2023-05-03T04:03:22.952Z,17.97
2023-05-03T04:05:50.640Z,18.01
2023-05-03T04:08:18.469Z,18.02
2023-05-03T04:10:45.793Z,18.07
2023-05-03T04:13:13.152Z,18.05
2023-05-03T04:15:40.329Z,18.09
2023-05-03T04:18:08.287Z,18.09
2023-05-03T04:20:37.247Z,18.15
2023-05-03T04:23:04.862Z,18.30
2023-05-03T04:25:33.065Z,18.39
2023-05-03T04:28:08.204Z,18.54
2023-05-03T04:30:35.969Z,18.58
2023-05-03T04:33:03.987Z,18.63
2023-05-03T04:35:33.676Z,18.72
2023-05-03T04:38:03.703Z,18.82
2023-05-03T04:40:31.413Z,18.86
2023-05-03T04:43:05.115Z,18.92
2023-05-03T04:45:34.706Z,19.03
2023-05-03T04:48:04.807Z,19.14
2023-05-03T04:50:32.973Z,19.24
2023-05-03T04:53:00.177Z,19.36
2023-05-03T04:55:27.664Z,19.44
2023-05-03T04:57:55.275Z,19.59
2023-05-03T05:00:23.097Z,19.69
2023-05-03T05:02:54.771Z,19.75
2023-05-03T05:05:21.854Z,19.77
2023-05-03T05:07:48.722Z,19.85
2023-05-03T05:10:16.756Z,19.97
2023-05-03T05:12:44.048Z,20.07
2023-05-03T05:15:11.328Z,20.10
2023-05-03T05:17:39.378Z,20.23
2023-05-03T05:20:12.006Z,20.35
2023-05-03T05:22:40.339Z,20.44
2023-05-03T05:25:07.649Z,20.59
2023-05-03T05:27:35.853Z,20.67
2023-05-03T05:30:04.184Z,20.78
2023-05-03T05:32:32.950Z,20.82
2023-05-03T05:35:00.642Z,20.90
2023-05-03T05:37:28.064Z,21.03
2023-05-03T05:39:57.555Z,21.13
2023-05-03T05:42:26.614Z,21.19
2023-05-03T05:44:53.951Z,21.32
2023-05-03T05:47:21.924Z,21.45
2023-05-03T05:49:50.140Z,21.52
2023-05-03T05:52:17.247Z,21.59
2023-05-03T05:54:44.219Z,21.73
2023-05-03T05:57:12.449Z,21.73
2023-05-03T05:59:40.266Z,21.84
2023-05-03T06:02:10.227Z,21.97
2023-05-03T06:04:37.830Z,22.09
2023-05-03T06:07:04.790Z,22.08
2023-05-03T06:09:31.828Z,22.21
2023-05-03T06:12:03.075Z,22.41
2023-05-03T06:14:31.941Z,22.55
2023-05-03T06:17:00.119Z,22.66
2023-05-03T06:19:26.967Z,22.71
2023-05-03T06:21:54.089Z,22.86
2023-05-03T06:24:21.686Z,22.87
2023-05-03T06:26:52.790Z,23.00
2023-05-03T06:29:20.336Z,23.09
2023-05-03T06:31:47.483Z,23.17
2023-05-03T06:34:19.882Z,23.25
2023-05-03T06:36:48.545Z,23.30
2023-05-03T06:39:16.239Z,23.42
2023-05-03T06:41:44.138Z,23.58
2023-05-03T06:44:10.950Z,23.75
2023-05-03T06:46:38.704Z,23.85
2023-05-03T06:49:06.090Z,23.88
2023-05-03T06:51:33.683Z,23.98
2023-05-03T06:54:06.533Z,24.05
2023-05-03T06:56:33.804Z,24.15
2023-05-03T06:59:00.938Z,24.25
2023-05-03T07:01:27.794Z,24.49
2023-05-03T07:03:55.451Z,24.64
2023-05-03T07:06:23.762Z,24.70
2023-05-03T07:08:51.941Z,24.72
2023-05-03T07:11:23.264Z,24.83
2023-05-03T07:13:51.113Z,24.87
2023-05-03T07:16:21.393Z,24.98
2023-05-03T07:18:48.679Z,25.11
2023-05-03T07:21:15.587Z,25.19
2023-05-03T07:23:43.845Z,25.33
2023-05-03T07:26:11.100Z,25.48
2023-05-03T07:28:38.095Z,25.61
2023-05-03T07:31:05.248Z,25.73
2023-05-03T07:33:36.960Z,25.80
2023-05-03T07:36:04.980Z,25.75
2023-05-03T07:38:33.445Z,25.64
2023-05-03T07:41:00.854Z,25.60
2023-05-03T07:43:28.789Z,25.69
2023-05-03T07:45:55.654Z,25.80
2023-05-03T07:48:23.149Z,25.88
2023-05-03T07:50:50.072Z,25.86
2023-05-03T07:53:17.091Z,25.83
2023-05-03T07:55:44.223Z,25.82
2023-05-03T07:58:11.239Z,25.87
2023-05-03T08:00:38.416Z,25.93
2023-05-03T08:03:06.125Z,26.01
2023-05-03T08:05:35.988Z,26.08
2023-05-03T08:08:06.562Z,26.06
2023-05-03T08:10:37.344Z,26.09
2023-05-03T08:13:05.774Z,26.09
2023-05-03T08:15:33.286Z,26.10
2023-05-03T08:18:00.597Z,26.15
2023-05-03T08:20:27.586Z,26.24
2023-05-03T08:22:58.825Z,26.34
2023-05-03T08:25:27.823Z,26.35
2023-05-03T08:27:55.077Z,26.34
2023-05-03T08:30:22.556Z,26.46
2023-05-03T08:32:49.740Z,26.47
2023-05-03T08:35:16.780Z,26.45
2023-05-03T08:37:44.805Z,26.46
2023-05-03T08:40:13.470Z,26.53
2023-05-03T08:42:44.315Z,26.53
2023-05-03T08:45:13.720Z,26.47
2023-05-03T08:47:41.222Z,26.50
2023-05-03T08:50:09.601Z,26.56
2023-05-03T08:52:39.606Z,26.53
2023-05-03T08:55:07.151Z,26.59
2023-05-03T08:57:35.330Z,26.65
2023-05-03T09:00:05.732Z,26.64
2023-05-03T09:02:34.412Z,26.69
2023-05-03T09:05:01.501Z,26.84
2023-05-03T09:07:29.057Z,26.99
2023-05-03T09:09:57.669Z,27.07
2023-05-03T09:12:40.564Z,26.96
2023-05-03T09:15:08.405Z,27.23
2023-05-03T09:17:35.668Z,27.29
2023-05-03T09:20:03.521Z,27.26
2023-05-03T09:22:31.921Z,27.31
2023-05-03T09:25:00.446Z,27.41
2023-05-03T09:27:27.532Z,27.40
2023-05-03T09:29:54.389Z,27.40
2023-05-03T09:32:22.376Z,27.40
2023-05-03T09:34:49.360Z,27.46
2023-05-03T09:37:16.258Z,27.63
2023-05-03T09:39:45.049Z,27.64
2023-05-03T09:42:15.898Z,27.62
2023-05-03T09:44:43.777Z,27.72
2023-05-03T09:47:10.634Z,27.78
2023-05-03T09:49:37.827Z,27.86
2023-05-03T09:52:06.038Z,27.74
2023-05-03T09:54:34.861Z,27.76
2023-05-03T09:57:04.190Z,27.78
2023-05-03T09:59:35.663Z,27.94
2023-05-03T10:02:04.292Z,28.04
2023-05-03T10:04:39.287Z,28.02
2023-05-03T10:07:10.647Z,28.14
2023-05-03T10:09:39.744Z,28.29
2023-05-03T10:12:11.275Z,28.31
2023-05-03T10:14:42.881Z,28.31
2023-05-03T10:17:35.379Z,28.27
2023-05-03T10:20:20.821Z,28.14
2023-05-03T10:23:05.911Z,28.20
2023-05-03T10:25:34.901Z,28.34
2023-05-03T10:28:05.684Z,28.43
2023-05-03T10:30:37.214Z,28.54
2023-05-03T10:33:13.210Z,28.55
2023-05-03T10:35:41.569Z,28.75
2023-05-03T10:38:14.573Z,28.84
2023-05-03T10:40:42.761Z,28.92
2023-05-03T10:43:31.491Z,28.97
2023-05-03T10:46:05.697Z,29.01
2023-05-03T10:48:33.662Z,28.93
2023-05-03T10:51:32.497Z,28.73
2023-05-03T10:53:59.342Z,28.75
2023-05-03T10:56:26.289Z,28.79
2023-05-03T10:58:58.186Z,28.90
2023-05-03T11:01:25.413Z,29.02
2023-05-03T11:03:52.908Z,29.21
2023-05-03T11:06:33.954Z,29.31
2023-05-03T11:09:06.273Z,29.27
2023-05-03T11:11:38.774Z,29.27
2023-05-03T11:14:06.099Z,29.33
2023-05-03T11:16:36.089Z,29.31
2023-05-03T11:19:03.406Z,29.32
2023-05-03T11:21:30.903Z,29.40
2023-05-03T11:23:58.398Z,29.38
2023-05-03T11:26:25.652Z,29.41
2023-05-03T11:28:53.433Z,29.45
2023-05-03T11:31:23.688Z,29.60
2023-05-03T11:33:51.267Z,29.52
2023-05-03T11:36:18.134Z,29.51
2023-05-03T11:38:45.248Z,29.43
2023-05-03T11:41:21.184Z,29.54
2023-05-03T11:43:55.017Z,29.71
2023-05-03T11:46:29.009Z,29.89
2023-05-03T11:48:56.346Z,30.01
2023-05-03T11:51:23.453Z,29.94
2023-05-03T11:53:51.150Z,29.99
2023-05-03T11:56:19.775Z,30.04
2023-05-03T11:58:55.660Z,30.18
2023-05-03T12:01:26.951Z,30.25
2023-05-03T12:03:58.536Z,30.17
2023-05-03T12:06:27.680Z,30.04
2023-05-03T12:08:56.058Z,29.99
2023-05-03T12:11:25.767Z,29.93
2023-05-03T12:14:00.461Z,30.16
2023-05-03T12:16:28.066Z,30.25
2023-05-03T12:19:03.442Z,30.29
2023-05-03T12:21:59.394Z,30.31
2023-05-03T12:24:34.898Z,30.50
2023-05-03T12:27:03.232Z,30.46
2023-05-03T12:29:32.965Z,30.48
2023-05-03T12:32:02.650Z,30.64
2023-05-03T12:34:34.843Z,30.67
2023-05-03T12:37:06.072Z,30.72
2023-05-03T12:39:34.068Z,30.77
2023-05-03T12:42:07.146Z,30.69
2023-05-03T12:44:36.201Z,30.65
2023-05-03T12:47:03.571Z,30.67
2023-05-03T12:49:31.521Z,30.66
2023-05-03T12:52:21.935Z,30.46
2023-05-03T12:54:49.085Z,30.48
2023-05-03T12:57:17.493Z,30.49
2023-05-03T12:59:53.176Z,30.51
2023-05-03T13:04:58.807Z,30.60
2023-05-03T13:07:29.630Z,30.72
2023-05-03T13:12:27.855Z,30.67
2023-05-03T13:14:55.281Z,30.54
2023-05-03T13:17:22.140Z,30.56
2023-05-03T13:19:49.490Z,30.60
2023-05-03T13:22:16.712Z,30.59
2023-05-03T13:24:44.407Z,30.53
2023-05-03T13:27:11.415Z,30.53
2023-05-03T13:29:38.858Z,30.52
2023-05-03T13:32:05.935Z,30.51
2023-05-03T13:34:33.518Z,30.49
2023-05-03T13:37:05.968Z,30.40
2023-05-03T13:39:32.890Z,30.33
2023-05-03T13:42:00.169Z,30.21
2023-05-03T13:44:27.202Z,30.18
2023-05-03T13:46:55.089Z,30.17
2023-05-03T13:49:22.054Z,30.27
2023-05-03T13:51:49.123Z,30.44
2023-05-03T13:54:16.293Z,30.54
2023-05-03T13:56:43.463Z,30.64
2023-05-03T13:59:12.031Z,31.08
2023-05-03T14:01:39.164Z,31.23
2023-05-03T14:04:06.371Z,31.23
2023-05-03T14:06:33.929Z,31.21
2023-05-03T14:09:02.042Z,31.27
2023-05-03T14:11:29.870Z,31.23
2023-05-03T14:13:58.492Z,31.17
2023-05-03T14:18:56.361Z,29.31
2023-05-03T14:21:23.109Z,28.88
2023-05-03T14:23:50.562Z,28.96
2023-05-03T14:26:17.694Z,28.68
2023-05-03T14:28:44.788Z,28.82
2023-05-03T14:31:12.630Z,28.83
2023-05-03T14:33:39.346Z,28.84
2023-05-03T14:36:07.921Z,28.83
2023-05-03T14:38:36.658Z,28.72
2023-05-03T14:41:03.831Z,28.70
2023-05-03T14:43:31.317Z,28.78
2023-05-03T14:45:58.225Z,28.81
2023-05-03T14:48:25.640Z,28.71
2023-05-03T14:50:53.750Z,28.55
2023-05-03T14:53:21.359Z,28.40
2023-05-03T14:55:48.236Z,28.33
2023-05-03T14:58:15.847Z,28.93
2023-05-03T15:00:43.666Z,29.12
2023-05-03T15:05:36.838Z,28.40
2023-05-03T15:08:04.284Z,28.78
2023-05-03T15:10:31.406Z,29.70
2023-05-03T15:12:58.578Z,29.23
2023-05-03T15:15:25.812Z,29.00
2023-05-03T15:17:52.985Z,29.02
2023-05-03T15:20:20.740Z,28.79
2023-05-03T15:22:47.710Z,27.90
2023-05-03T15:25:17.467Z,28.07
2023-05-03T15:27:44.544Z,27.97
2023-05-03T15:30:12.399Z,27.53
2023-05-03T15:32:39.532Z,27.50
2023-05-03T15:35:07.252Z,27.35
2023-05-03T15:37:38.204Z,27.45
2023-05-03T15:40:06.312Z,27.34
2023-05-03T15:42:33.776Z,27.41
2023-05-03T15:45:01.032Z,27.33
2023-05-03T15:47:28.181Z,27.27
2023-05-03T15:49:57.661Z,27.11
2023-05-03T15:52:25.050Z,26.91
2023-05-03T15:54:52.097Z,27.07
2023-05-03T15:57:19.347Z,27.49
2023-05-03T15:59:46.651Z,28.35
2023-05-03T16:02:13.972Z,28.45
2023-05-03T16:04:41.267Z,28.49
2023-05-03T16:07:08.932Z,28.50
2023-05-03T16:09:36.906Z,28.46
2023-05-03T16:12:04.437Z,28.41
2023-05-03T16:14:31.568Z,28.34
2023-05-03T16:17:00.387Z,28.47
2023-05-03T16:19:27.563Z,28.74
2023-05-03T16:21:54.668Z,28.72
2023-05-03T16:24:21.742Z,28.73
2023-05-03T16:26:49.429Z,28.76
2023-05-03T16:29:17.604Z,28.77
2023-05-03T16:31:46.610Z,28.64
2023-05-03T16:34:14.383Z,28.56
2023-05-03T16:36:45.388Z,28.51
2023-05-03T16:39:12.798Z,28.45
2023-05-03T16:41:40.686Z,28.33
2023-05-03T16:44:08.728Z,28.31
2023-05-03T16:46:36.793Z,28.29
2023-05-03T16:49:04.754Z,28.27
2023-05-03T16:51:32.546Z,28.27
2023-05-03T16:54:01.647Z,28.18
2023-05-03T16:56:30.953Z,28.16
2023-05-03T16:58:59.326Z,28.10
2023-05-03T17:01:26.550Z,28.00
2023-05-03T17:03:53.778Z,27.90
2023-05-03T17:06:21.174Z,27.81
2023-05-03T17:08:48.241Z,27.76
2023-05-03T17:11:16.356Z,27.67
2023-05-03T17:13:43.781Z,27.57
2023-05-03T17:16:15.274Z,27.49
2023-05-03T17:18:42.941Z,27.33
2023-05-03T17:21:10.996Z,27.25
2023-05-03T17:23:39.598Z,27.15
2023-05-03T17:26:11.296Z,27.05
2023-05-03T17:28:38.653Z,26.95
2023-05-03T17:31:09.331Z,26.88
2023-05-03T17:33:36.595Z,26.77
2023-05-03T17:36:07.003Z,26.64
2023-05-03T17:38:34.237Z,26.53
2023-05-03T17:41:08.747Z,26.45
2023-05-03T17:43:36.793Z,26.39
2023-05-03T17:46:11.785Z,26.31
2023-05-03T17:48:40.843Z,26.26
2023-05-03T17:51:08.050Z,26.18
2023-05-03T17:53:35.297Z,26.01
2023-05-03T17:56:02.637Z,25.96
2023-05-03T17:58:29.761Z,25.92
2023-05-03T18:00:57.786Z,25.89
2023-05-03T18:03:26.042Z,25.82
2023-05-03T18:05:53.251Z,25.75
2023-05-03T18:08:20.885Z,25.68
2023-05-03T18:10:48.397Z,25.62
2023-05-03T18:13:15.625Z,25.58
2023-05-03T18:15:44.035Z,25.43
2023-05-03T18:18:11.689Z,25.34
2023-05-03T18:20:39.637Z,25.29
2023-05-03T18:23:06.854Z,25.26
2023-05-03T18:25:34.367Z,25.16
2023-05-03T18:28:02.220Z,25.15
2023-05-03T18:30:29.652Z,25.08
2023-05-03T18:32:56.915Z,25.00
2023-05-03T18:35:24.102Z,24.79
2023-05-03T18:37:53.310Z,24.72
2023-05-03T18:40:20.444Z,24.56
2023-05-03T18:42:47.591Z,24.46
2023-05-03T18:45:15.455Z,24.33
2023-05-03T18:47:42.786Z,24.22
2023-05-03T18:50:10.383Z,24.15
2023-05-03T18:52:37.995Z,23.93
2023-05-03T18:55:08.849Z,23.80
2023-05-03T18:57:35.915Z,23.71
2023-05-03T19:00:06.643Z,23.69
2023-05-03T19:02:33.949Z,23.67
2023-05-03T19:05:01.462Z,23.63
2023-05-03T19:07:28.717Z,23.54
2023-05-03T19:09:56.579Z,23.50
2023-05-03T19:12:23.850Z,23.46
2023-05-03T19:14:51.052Z,23.39
2023-05-03T19:17:18.405Z,23.29
2023-05-03T19:19:45.762Z,23.20
2023-05-03T19:22:13.139Z,23.19
2023-05-03T19:24:43.948Z,23.14
2023-05-03T19:27:11.983Z,23.05
2023-05-03T19:29:39.210Z,22.95
2023-05-03T19:32:06.394Z,22.85
2023-05-03T19:34:36.536Z,22.79
2023-05-03T19:37:03.782Z,22.73
2023-05-03T19:39:33.282Z,22.66
2023-05-03T19:42:00.526Z,22.60
2023-05-03T19:44:30.999Z,22.56
2023-05-03T19:46:58.306Z,22.55
2023-05-03T19:49:25.900Z,22.49
2023-05-03T19:51:54.193Z,22.43
2023-05-03T19:54:21.452Z,22.44
2023-05-03T19:56:49.039Z,22.34
2023-05-03T19:59:16.421Z,22.27
2023-05-03T20:01:45.361Z,22.27
2023-05-03T20:04:12.704Z,22.28
2023-05-03T20:06:39.874Z,22.28
2023-05-03T20:09:07.087Z,22.31
2023-05-03T20:11:34.254Z,22.30
2023-05-03T20:14:01.440Z,22.27
2023-05-03T20:16:32.931Z,22.24
2023-05-03T20:19:00.196Z,22.20
2023-05-03T20:21:27.652Z,22.16
2023-05-03T20:23:54.735Z,22.13
2023-05-03T20:26:22.115Z,22.11
2023-05-03T20:28:49.572Z,22.05
2023-05-03T20:31:17.625Z,22.01
2023-05-03T20:33:44.621Z,21.94
2023-05-03T20:36:13.539Z,21.94
2023-05-03T20:38:40.842Z,21.77
2023-05-03T20:41:08.097Z,21.66
2023-05-03T20:43:35.223Z,21.54
2023-05-03T20:46:02.386Z,21.44
2023-05-03T20:48:29.645Z,21.39
2023-05-03T20:50:59.109Z,21.40
2023-05-03T20:53:26.394Z,21.36
2023-05-03T20:55:57.109Z,21.30
2023-05-03T20:58:24.480Z,21.19
2023-05-03T21:00:53.374Z,21.14
2023-05-03T21:03:23.784Z,21.16
2023-05-03T21:05:53.158Z,21.11
2023-05-03T21:08:20.242Z,21.15
2023-05-03T21:10:47.437Z,21.09
2023-05-03T21:13:14.882Z,21.06
2023-05-03T21:15:42.802Z,21.03
2023-05-03T21:18:10.338Z,21.00
2023-05-03T21:20:37.820Z,20.97
2023-05-03T21:23:05.251Z,20.97
2023-05-03T21:25:32.354Z,20.95
2023-05-03T21:27:59.524Z,20.97
2023-05-03T21:30:27.955Z,20.99
2023-05-03T21:32:55.002Z,20.97
2023-05-03T21:35:22.198Z,20.91
2023-05-03T21:37:50.079Z,20.90
2023-05-03T21:40:17.649Z,20.88
2023-05-03T21:42:44.967Z,20.81
2023-05-03T21:45:12.607Z,20.76
2023-05-03T21:47:39.777Z,20.74
2023-05-03T21:50:08.056Z,20.70
2023-05-03T21:52:36.633Z,20.70
2023-05-03T21:55:04.242Z,20.71
2023-05-03T21:57:33.016Z,20.66
2023-05-03T22:00:00.304Z,20.64
2023-05-03T22:02:27.739Z,20.62
2023-05-03T22:04:55.178Z,20.59
2023-05-03T22:07:22.686Z,20.55
2023-05-03T22:09:49.828Z,20.52
2023-05-03T22:14:47.629Z,20.43
2023-05-03T22:17:14.777Z,20.41
2023-05-03T22:19:42.395Z,20.37
2023-05-03T22:22:09.542Z,20.39
2023-05-03T22:24:36.575Z,20.42
2023-05-03T22:27:03.975Z,20.37
2023-05-03T22:29:31.226Z,20.34
2023-05-03T22:31:59.350Z,20.29
2023-05-03T22:34:26.870Z,20.20
2023-05-03T22:36:54.142Z,20.17
2023-05-03T22:39:21.198Z,20.12
2023-05-03T22:41:48.477Z,20.04
2023-05-03T22:44:15.935Z,20.00
2023-05-03T22:46:43.017Z,19.97
2023-05-03T22:49:10.112Z,19.93
2023-05-03T22:51:37.340Z,19.87
2023-05-03T22:59:25.374Z,19.78
2023-05-03T23:01:52.503Z,19.69
2023-05-03T23:04:19.584Z,19.68
2023-05-03T23:06:46.977Z,19.68
2023-05-03T23:09:14.032Z,19.63
2023-05-03T23:11:41.365Z,19.56
2023-05-03T23:14:08.595Z,19.51
2023-05-03T23:16:35.666Z,19.48
2023-05-03T23:19:03.896Z,19.48
2023-05-03T23:21:32.502Z,19.48
2023-05-03T23:23:59.711Z,19.47
2023-05-03T23:26:28.185Z,19.40
2023-05-03T23:28:55.866Z,19.36
2023-05-03T23:31:23.640Z,19.38
2023-05-03T23:33:51.279Z,19.37
2023-05-03T23:36:18.727Z,19.34
2023-05-03T23:38:46.159Z,19.32
2023-05-03T23:41:13.310Z,19.36
2023-05-03T23:43:40.381Z,19.32
2023-05-03T23:46:07.709Z,19.28
2023-05-03T23:48:35.125Z,19.26
2023-05-03T23:51:02.252Z,19.22
2023-05-03T23:53:29.406Z,19.18
2023-05-03T23:55:56.558Z,19.11
2023-05-03T23:58:23.887Z,19.08
